Overview Statistics Trail Chart Weather Telemetry Raw packets
 

This is the latest recevied weather packets stored in our database for station/object DOUGLAS. If no packets are shown the sender has not sent any weather packets the latest 10 day(s).

<< 35 36 37 38 39 40 41 >>
Time Temp. Humidity Pressure Rain* Wind** Luminosity Snow
1788057603 13.33° C 90% 0 hPa - - - -
1788057003 13.33° C 87% 0 hPa - - - -
1788056403 13.89° C 85% 0 hPa - - - -
1788055803 13.89° C 85% 0 hPa - - - -
1788055204 13.89° C 86% 0 hPa - - - -
1788054603 13.89° C 86% 0 hPa - - - -
1788054003 14.44° C 85% 0 hPa - - - -
1788053406 14.44° C 84% 0 hPa - - - -
1788052803 14.44° C 85% 0 hPa - - - -
1788052203 15° C 84% 0 hPa - - - -
1788051604 15° C 83% 0 hPa - - - -
1788051003 15° C 81% 0 hPa - - - -
1788050403 14.44° C 81% 0 hPa - - - -
1788049802 14.44° C 82% 0 hPa - - - -
1788049207 14.44° C 84% 0 hPa - - - -
1788048603 14.44° C 86% 0 hPa - - - -
1788047403 15° C 82% 0 hPa - - - -
1788046804 15° C 79% 0 hPa - - - -
1788046203 15° C 78% 0 hPa - - - -
1788045603 16.67° C 71% 0 hPa - - - -
1788045002 16.11° C 69% 0 hPa - - - -
1788044403 15.56° C 72% 0 hPa - - - -
1788043803 16.11° C 70% 0 hPa - - - -
1788043203 16.67° C 71% 0 hPa - - - -
1788042603 16.67° C 69% 0 hPa - - - -

* Rain since midnight (hover to see other rain measurements)
** Current wind speed in m/s (hover to see current wind gust speed)